Time;durP1;ratioP1;P1;durP2;ratioP2;P2;SDS_P1;SDS_P2;PMS_P1;PMS_P2;Temp;Humidity;BMP_temperature;BMP_pressure;BME280_temperature;BME280_humidity;BME280_pressure;Samples;Min_cycle;Max_cycle;Signal;HPM_P1;HPM_P2
2022/12/20 00:01:58;;;;;;;22.70;9.60;;;3.00;99.90;;;;;;4169727;28;20503;-77
2022/12/20 00:04:04;;;;;;;21.93;10.73;;;3.00;99.90;;;;;;4161232;28;20552;-78
2022/12/20 00:06:06;;;;;;;21.77;9.83;;;3.10;99.90;;;;;;4163242;28;20458;-78
2022/12/20 00:08:12;;;;;;;22.23;10.07;;;3.10;99.90;;;;;;4155805;28;20542;-78
2022/12/20 00:10:15;;;;;;;19.90;9.77;;;3.10;99.90;;;;;;4176818;28;20460;-79
2022/12/20 00:12:17;;;;;;;21.10;9.80;;;3.10;99.90;;;;;;4151126;28;20971;-78
2022/12/20 00:14:19;;;;;;;23.43;10.20;;;3.10;99.90;;;;;;4177966;28;20456;-78
2022/12/20 00:16:22;;;;;;;24.83;10.60;;;3.20;99.90;;;;;;4158772;28;20481;-79
2022/12/20 00:18:27;;;;;;;22.60;10.87;;;3.20;99.90;;;;;;4173330;28;20491;-78
2022/12/20 00:20:30;;;;;;;22.57;9.57;;;3.20;99.90;;;;;;4160269;28;21169;-79
2022/12/20 00:22:32;;;;;;;25.93;10.83;;;3.20;99.90;;;;;;4178029;28;20449;-79
2022/12/20 00:24:34;;;;;;;21.17;10.03;;;3.20;99.90;;;;;;4180761;28;21003;-78
2022/12/20 00:26:38;;;;;;;23.80;10.00;;;3.30;99.90;;;;;;4174226;28;20473;-78
2022/12/20 00:28:41;;;;;;;26.40;10.73;;;3.30;99.90;;;;;;4173653;28;20465;-78
2022/12/20 00:30:43;;;;;;;26.33;11.03;;;3.30;99.90;;;;;;4170711;28;20450;-79
2022/12/20 00:32:45;;;;;;;24.70;10.90;;;3.30;99.90;;;;;;4159453;28;20493;-78
2022/12/20 00:34:47;;;;;;;25.73;11.40;;;3.30;99.90;;;;;;4173133;28;20839;-78
2022/12/20 00:36:49;;;;;;;26.00;10.63;;;3.40;99.90;;;;;;4170155;28;20478;-78
2022/12/20 00:38:53;;;;;;;27.70;10.90;;;3.40;99.90;;;;;;4165691;28;20513;-78
2022/12/20 00:41:02;;;;;;;22.63;10.17;;;3.40;99.90;;;;;;4161372;28;20469;-78
2022/12/20 00:43:05;;;;;;;25.93;11.57;;;3.40;99.90;;;;;;4172766;28;20483;-78
2022/12/20 00:45:08;;;;;;;21.67;10.00;;;3.40;99.90;;;;;;4151462;28;20485;-78
2022/12/20 00:47:10;;;;;;;26.53;11.67;;;3.40;99.90;;;;;;4183640;28;20484;-79
2022/12/20 00:49:12;;;;;;;23.83;10.40;;;3.50;99.90;;;;;;4167086;28;20863;-79
2022/12/20 00:51:16;;;;;;;22.90;10.50;;;3.40;99.90;;;;;;4181786;28;20471;-79
2022/12/20 00:53:18;;;;;;;23.63;10.70;;;3.40;99.90;;;;;;4167111;28;20470;-78
2022/12/20 00:55:20;;;;;;;25.90;11.03;;;3.40;99.90;;;;;;4170307;28;20446;-77
2022/12/20 00:57:22;;;;;;;22.87;10.13;;;3.40;99.90;;;;;;4176025;28;20552;-78
2022/12/20 00:59:26;;;;;;;21.33;10.03;;;3.40;99.90;;;;;;4155449;28;20616;-78
2022/12/20 01:01:30;;;;;;;22.43;10.73;;;3.50;99.90;;;;;;4176755;28;20510;-78
2022/12/20 01:03:32;;;;;;;27.17;11.17;;;3.50;99.90;;;;;;4176983;28;20472;-78
2022/12/20 01:05:34;;;;;;;24.23;10.53;;;3.50;99.90;;;;;;4156959;28;20462;-78
2022/12/20 01:07:36;;;;;;;23.63;11.13;;;3.50;99.90;;;;;;4174705;28;20468;-78
2022/12/20 01:09:39;;;;;;;26.13;10.77;;;3.50;99.90;;;;;;4164921;28;20576;-78
2022/12/20 01:11:41;;;;;;;20.50;9.90;;;3.50;99.90;;;;;;4176984;28;20471;-78
2022/12/20 01:13:45;;;;;;;24.23;10.70;;;3.50;99.90;;;;;;4173392;28;20457;-78
2022/12/20 01:15:48;;;;;;;20.93;9.70;;;3.50;99.90;;;;;;4170148;28;20535;-78
2022/12/20 01:17:50;;;;;;;25.57;10.47;;;3.50;99.90;;;;;;4154155;28;20467;-78
2022/12/20 01:19:52;;;;;;;24.47;10.73;;;3.50;99.90;;;;;;4169619;28;20450;-79
2022/12/20 01:21:54;;;;;;;23.37;10.43;;;3.60;99.90;;;;;;4177456;28;20468;-78
2022/12/20 01:23:57;;;;;;;23.63;10.63;;;3.50;99.90;;;;;;4178675;28;20507;-78
2022/12/20 01:25:59;;;;;;;20.07;10.30;;;3.50;99.90;;;;;;4175738;28;21063;-78
2022/12/20 01:28:04;;;;;;;25.60;11.13;;;3.50;99.90;;;;;;4177565;28;20447;-79
2022/12/20 01:30:07;;;;;;;25.20;9.90;;;3.50;99.90;;;;;;4179669;28;20512;-78
2022/12/20 01:32:11;;;;;;;28.00;11.30;;;3.50;99.90;;;;;;4175472;28;20446;-78
2022/12/20 01:34:13;;;;;;;22.80;10.23;;;3.50;99.90;;;;;;4175271;28;20464;-79
2022/12/20 01:36:17;;;;;;;23.60;11.10;;;3.50;99.90;;;;;;4176439;28;20998;-78
2022/12/20 01:38:19;;;;;;;24.13;11.47;;;3.50;99.90;;;;;;4172666;28;20525;-78
2022/12/20 01:40:20;;;;;;;25.40;10.23;;;3.50;99.90;;;;;;4179588;28;20496;-78
2022/12/20 01:42:22;;;;;;;23.23;11.07;;;3.60;99.90;;;;;;4172775;28;20831;-78
2022/12/20 01:44:55;;;;;;;29.00;11.87;;;3.50;99.90;;;;;;4175576;28;20462;-78
2022/12/20 01:46:56;;;;;;;31.80;11.77;;;3.50;99.90;;;;;;4176838;28;20556;-78
2022/12/20 01:49:05;;;;;;;22.87;10.47;;;3.50;99.90;;;;;;4172233;28;20498;-78
2022/12/20 01:51:07;;;;;;;29.43;11.90;;;3.50;99.90;;;;;;4176144;28;20460;-78
2022/12/20 01:53:10;;;;;;;27.47;12.00;;;3.50;99.90;;;;;;4169356;28;20496;-78
2022/12/20 01:55:17;;;;;;;25.07;11.97;;;3.50;99.90;;;;;;4171853;28;20552;-78
2022/12/20 01:57:24;;;;;;;23.47;11.83;;;3.50;99.90;;;;;;4176265;28;20511;-78
2022/12/20 01:59:28;;;;;;;25.17;11.10;;;3.50;99.90;;;;;;4175380;28;20480;-78
2022/12/20 02:01:30;;;;;;;23.73;11.30;;;3.50;99.90;;;;;;4176724;28;20549;-78
2022/12/20 02:03:32;;;;;;;27.80;11.97;;;3.50;99.90;;;;;;4175174;28;21033;-78
2022/12/20 02:05:38;;;;;;;30.13;12.23;;;3.50;99.90;;;;;;4170350;28;20955;-77
2022/12/20 02:07:42;;;;;;;23.97;10.93;;;3.50;99.90;;;;;;4172475;28;20572;-78
2022/12/20 02:09:45;;;;;;;29.47;11.83;;;3.50;99.90;;;;;;4171385;28;20481;-78
2022/12/20 02:11:59;;;;;;;24.23;11.03;;;3.50;99.90;;;;;;4166247;28;20474;-78
2022/12/20 02:14:12;;;;;;;23.93;11.00;;;3.60;99.90;;;;;;4168794;28;20519;-78
2022/12/20 02:16:22;;;;;;;26.10;10.70;;;3.50;99.90;;;;;;4174763;28;20556;-78
2022/12/20 02:18:28;;;;;;;25.40;11.50;;;3.50;99.90;;;;;;4169948;28;20483;-77
2022/12/20 02:20:54;;;;;;;26.87;11.53;;;3.50;99.90;;;;;;4171654;28;20469;-77
2022/12/20 02:23:14;;;;;;;30.07;11.37;;;3.50;99.90;;;;;;4171778;28;20456;-77
2022/12/20 02:25:42;;;;;;;24.87;11.63;;;3.50;99.90;;;;;;4174188;28;20572;-78
2022/12/20 02:27:52;;;;;;;28.77;11.77;;;3.50;99.90;;;;;;4172257;28;20513;-78
2022/12/20 02:30:07;;;;;;;22.13;10.60;;;3.50;99.90;;;;;;4172783;28;20479;-77
2022/12/20 02:32:16;;;;;;;22.87;10.80;;;3.50;99.90;;;;;;4171736;28;20496;-77
2022/12/20 02:34:20;;;;;;;26.47;11.53;;;3.50;99.90;;;;;;4171824;28;21025;-78
2022/12/20 02:36:24;;;;;;;25.40;11.40;;;3.50;99.90;;;;;;4175952;28;20508;-77
2022/12/20 02:38:30;;;;;;;25.93;10.73;;;3.50;99.90;;;;;;4170771;28;20449;-77
2022/12/20 02:40:36;;;;;;;29.17;11.27;;;3.50;99.90;;;;;;4175408;28;20485;-77
2022/12/20 02:42:38;;;;;;;25.83;10.80;;;3.50;99.90;;;;;;4174831;28;20561;-77
2022/12/20 02:47:09;;;;;;;23.60;10.80;;;3.60;99.90;;;;;;4181170;28;20497;-78
2022/12/20 02:49:14;;;;;;;28.47;11.83;;;3.60;99.90;;;;;;4182610;28;20534;-78
2022/12/20 02:51:20;;;;;;;22.90;11.13;;;3.60;99.90;;;;;;4178521;28;20547;-78
2022/12/20 02:53:22;;;;;;;27.97;11.70;;;3.60;99.90;;;;;;4172781;28;20548;-78
2022/12/20 02:55:33;;;;;;;27.17;11.77;;;3.60;99.90;;;;;;4168099;28;20968;-78
2022/12/20 02:57:42;;;;;;;26.37;11.70;;;3.60;99.90;;;;;;4169877;28;20563;-78
2022/12/20 02:59:55;;;;;;;27.00;11.57;;;3.60;99.90;;;;;;4172992;28;20876;-78
2022/12/20 03:01:57;;;;;;;29.27;11.80;;;3.60;99.90;;;;;;4171120;28;20473;-78
2022/12/20 03:04:01;;;;;;;28.43;12.23;;;3.60;99.90;;;;;;4175753;28;20465;-79
2022/12/20 03:06:03;;;;;;;27.23;11.70;;;3.60;99.90;;;;;;4149920;28;21082;-79
2022/12/20 03:08:05;;;;;;;31.47;13.13;;;3.60;99.90;;;;;;4168370;28;20484;-79
2022/12/20 03:10:08;;;;;;;33.13;13.27;;;3.60;99.90;;;;;;4173918;28;20458;-79
2022/12/20 03:12:12;;;;;;;30.77;13.50;;;3.60;99.90;;;;;;4171810;28;20494;-79
2022/12/20 03:14:13;;;;;;;32.87;12.83;;;3.60;99.90;;;;;;4174172;28;20504;-78
2022/12/20 03:16:15;;;;;;;34.43;14.33;;;3.50;99.90;;;;;;4172700;28;20483;-78
2022/12/20 03:18:17;;;;;;;38.90;13.63;;;3.50;99.90;;;;;;4172132;28;20545;-78
2022/12/20 03:20:21;;;;;;;32.77;13.97;;;3.50;99.90;;;;;;4166779;28;20989;-78
2022/12/20 03:22:23;;;;;;;32.07;13.53;;;3.50;99.90;;;;;;4164352;28;20492;-79
2022/12/20 03:24:25;;;;;;;36.67;13.97;;;3.50;99.90;;;;;;4176205;28;20468;-78
2022/12/20 03:26:27;;;;;;;38.50;14.53;;;3.60;99.90;;;;;;4172438;28;20477;-78
2022/12/20 03:28:29;;;;;;;37.57;15.03;;;3.50;99.90;;;;;;4177870;28;20473;-78
2022/12/20 03:30:31;;;;;;;34.00;14.13;;;3.50;99.90;;;;;;4175233;28;20483;-78
2022/12/20 03:32:35;;;;;;;32.73;13.70;;;3.50;99.90;;;;;;4164059;28;20555;-78
2022/12/20 03:34:37;;;;;;;37.77;14.63;;;3.50;99.90;;;;;;4177386;28;20457;-78
2022/12/20 03:36:41;;;;;;;35.67;15.30;;;3.50;99.90;;;;;;4180683;28;20488;-78
2022/12/20 03:38:43;;;;;;;41.40;16.00;;;3.50;99.90;;;;;;4172887;28;20480;-78
2022/12/20 03:40:45;;;;;;;37.77;14.73;;;3.50;99.90;;;;;;4177443;28;20479;-78
2022/12/20 03:42:46;;;;;;;41.27;14.50;;;3.60;99.90;;;;;;4177284;28;20503;-78
2022/12/20 03:44:48;;;;;;;35.43;14.83;;;3.50;99.90;;;;;;4160295;28;20446;-78
2022/12/20 03:46:51;;;;;;;38.27;15.70;;;3.50;99.90;;;;;;4164131;28;20511;-78
2022/12/20 03:48:52;;;;;;;35.17;14.67;;;3.50;99.90;;;;;;4171328;28;20486;-77
2022/12/20 03:50:54;;;;;;;41.57;15.10;;;3.50;99.90;;;;;;4176823;28;20452;-78
2022/12/20 03:52:58;;;;;;;39.20;15.60;;;3.50;99.90;;;;;;4177143;28;20499;-77
2022/12/20 03:55:00;;;;;;;39.23;15.23;;;3.50;99.90;;;;;;4179446;28;20445;-78
2022/12/20 03:57:02;;;;;;;41.90;16.50;;;3.50;99.90;;;;;;4160233;28;21060;-78
2022/12/20 03:59:04;;;;;;;42.30;15.63;;;3.50;99.90;;;;;;4175972;28;20457;-78
2022/12/20 04:01:17;;;;;;;39.40;16.07;;;3.50;99.90;;;;;;4154521;28;20463;-78
2022/12/20 04:03:19;;;;;;;33.83;14.50;;;3.60;99.90;;;;;;4151702;28;20455;-78
2022/12/20 04:05:21;;;;;;;36.23;14.83;;;3.60;99.90;;;;;;4177059;28;20900;-78
2022/12/20 04:07:23;;;;;;;39.60;15.80;;;3.60;99.90;;;;;;4176523;28;20476;-78
2022/12/20 04:09:26;;;;;;;45.23;16.27;;;3.60;99.90;;;;;;4173719;28;20816;-78
2022/12/20 04:11:28;;;;;;;41.00;16.17;;;3.60;99.90;;;;;;4172458;28;20472;-78
2022/12/20 04:13:30;;;;;;;41.60;15.63;;;3.60;99.90;;;;;;4170098;28;20461;-78
2022/12/20 04:15:32;;;;;;;43.07;15.87;;;3.60;99.90;;;;;;4173007;28;20452;-77
2022/12/20 04:17:34;;;;;;;39.70;14.90;;;3.60;99.90;;;;;;4182361;28;20470;-78
2022/12/20 04:19:36;;;;;;;37.13;15.63;;;3.60;99.90;;;;;;4165077;28;20539;-77
2022/12/20 04:21:38;;;;;;;38.50;14.87;;;3.60;99.90;;;;;;4181094;28;20452;-77
2022/12/20 04:23:41;;;;;;;42.50;17.00;;;3.60;99.90;;;;;;4174971;28;20893;-77
2022/12/20 04:25:45;;;;;;;49.17;19.63;;;3.60;99.90;;;;;;4172672;28;21009;-77
2022/12/20 04:27:47;;;;;;;42.43;16.37;;;3.60;99.90;;;;;;4176050;28;20849;-77
2022/12/20 04:29:48;;;;;;;42.00;16.10;;;3.60;99.90;;;;;;4172044;28;20835;-77
2022/12/20 04:31:50;;;;;;;42.70;16.27;;;3.70;99.90;;;;;;4162975;28;20556;-77
2022/12/20 04:33:53;;;;;;;38.70;14.53;;;3.70;99.90;;;;;;4181420;28;20452;-77
2022/12/20 04:35:55;;;;;;;43.47;16.80;;;3.70;99.90;;;;;;4174421;28;20477;-77
2022/12/20 04:37:57;;;;;;;41.83;15.90;;;3.70;99.90;;;;;;4174066;28;20477;-77
2022/12/20 04:39:59;;;;;;;40.40;15.57;;;3.70;99.90;;;;;;4167733;28;20523;-77
2022/12/20 04:42:02;;;;;;;36.60;15.20;;;3.70;99.90;;;;;;4170212;28;20462;-77
2022/12/20 04:44:06;;;;;;;37.33;15.80;;;3.70;99.90;;;;;;4154044;28;20457;-77
2022/12/20 04:46:08;;;;;;;42.27;16.30;;;3.70;99.90;;;;;;4154893;28;20443;-77
2022/12/20 04:48:10;;;;;;;40.73;16.77;;;3.70;99.90;;;;;;4161171;28;20489;-77
2022/12/20 04:50:12;;;;;;;40.67;15.77;;;3.70;99.90;;;;;;4172854;28;20519;-77
2022/12/20 04:54:33;;;;;;;37.80;14.27;;;3.70;99.90;;;;;;4173529;28;20521;-77
2022/12/20 04:56:35;;;;;;;35.63;15.40;;;3.70;99.90;;;;;;4178817;28;20477;-77
2022/12/20 04:58:38;;;;;;;39.63;16.20;;;3.70;99.90;;;;;;4179912;28;20453;-77
2022/12/20 05:00:40;;;;;;;42.90;17.10;;;3.80;99.90;;;;;;4162023;28;20513;-78
2022/12/20 05:02:42;;;;;;;37.93;16.13;;;3.80;99.90;;;;;;4181646;28;20457;-77
2022/12/20 05:04:44;;;;;;;41.67;16.10;;;3.70;99.90;;;;;;4178899;28;20483;-77
2022/12/20 05:06:46;;;;;;;39.87;16.03;;;3.80;99.90;;;;;;4166575;28;20504;-77
2022/12/20 05:08:48;;;;;;;38.70;14.93;;;3.80;99.90;;;;;;4170144;28;20543;-77
2022/12/20 05:10:50;;;;;;;40.53;17.17;;;3.80;99.90;;;;;;4169350;28;20448;-77
2022/12/20 05:12:52;;;;;;;38.37;15.57;;;3.80;99.90;;;;;;4152903;28;20985;-77
2022/12/20 05:14:55;;;;;;;39.03;16.10;;;3.80;99.90;;;;;;4176890;28;20829;-77
2022/12/20 05:16:57;;;;;;;42.37;15.80;;;3.80;99.90;;;;;;4173870;28;20477;-77
2022/12/20 05:18:59;;;;;;;37.33;14.73;;;3.70;99.90;;;;;;4148545;28;20878;-77
2022/12/20 05:28:04;;;;;;;46.43;16.77;;;3.90;99.90;;;;;;4174678;28;20469;-77
2022/12/20 05:30:11;;;;;;;45.70;16.53;;;3.90;99.90;;;;;;4174200;28;20430;-77
2022/12/20 05:32:14;;;;;;;41.90;16.20;;;4.00;99.90;;;;;;4174470;28;20457;-77
2022/12/20 05:34:17;;;;;;;44.47;16.57;;;4.00;99.90;;;;;;4169219;28;20442;-77
2022/12/20 05:36:19;;;;;;;42.97;16.20;;;4.00;99.90;;;;;;4184741;28;20449;-77
2022/12/20 05:38:26;;;;;;;38.07;15.50;;;4.00;99.90;;;;;;4177145;28;20943;-77
2022/12/20 05:40:28;;;;;;;38.10;15.40;;;4.10;99.90;;;;;;4174566;28;20504;-77
2022/12/20 05:42:30;;;;;;;40.90;16.03;;;4.10;99.90;;;;;;4156565;28;20485;-77
2022/12/20 05:44:32;;;;;;;38.53;15.77;;;4.20;99.90;;;;;;4179993;28;20547;-76
2022/12/20 05:46:35;;;;;;;38.77;15.37;;;4.10;99.90;;;;;;4175983;28;20515;-77
2022/12/20 05:48:41;;;;;;;38.60;15.70;;;4.10;99.90;;;;;;4172722;28;20457;-77
2022/12/20 05:50:44;;;;;;;40.20;16.00;;;4.20;99.90;;;;;;4167799;28;20888;-76
2022/12/20 05:52:46;;;;;;;44.87;15.67;;;4.20;99.90;;;;;;4172268;28;20461;-76
2022/12/20 05:54:49;;;;;;;42.20;15.93;;;4.20;99.90;;;;;;4160390;28;20571;-77
2022/12/20 05:56:51;;;;;;;38.30;15.73;;;4.30;99.90;;;;;;4179272;28;20480;-77
2022/12/20 05:58:53;;;;;;;35.47;15.03;;;4.20;99.90;;;;;;4176859;28;20554;-77
2022/12/20 06:00:56;;;;;;;42.27;16.20;;;4.30;99.90;;;;;;4156878;28;20471;-77
2022/12/20 06:02:59;;;;;;;35.27;15.30;;;4.20;99.90;;;;;;4178293;28;20465;-77
2022/12/20 06:05:01;;;;;;;40.20;15.27;;;4.30;99.90;;;;;;4167380;28;21001;-77
2022/12/20 06:07:04;;;;;;;34.50;14.47;;;4.30;99.90;;;;;;4174516;28;21202;-77
2022/12/20 06:09:05;;;;;;;36.80;14.77;;;4.30;99.90;;;;;;4180215;28;20456;-77
2022/12/20 06:11:07;;;;;;;37.97;14.80;;;4.30;99.90;;;;;;4179355;28;20478;-76
2022/12/20 06:13:10;;;;;;;33.00;14.37;;;4.30;99.90;;;;;;4159438;28;21108;-77
2022/12/20 06:15:14;;;;;;;32.37;13.90;;;4.30;99.90;;;;;;4175045;28;21534;-76
2022/12/20 06:17:16;;;;;;;36.43;15.37;;;4.30;99.90;;;;;;4175686;28;20473;-77
2022/12/20 06:19:20;;;;;;;33.97;15.37;;;4.30;99.90;;;;;;4175419;28;20454;-76
2022/12/20 06:21:22;;;;;;;34.70;14.73;;;4.30;99.90;;;;;;4174866;28;20880;-77
2022/12/20 06:23:25;;;;;;;35.47;15.00;;;4.30;99.90;;;;;;4178474;28;20452;-77
2022/12/20 06:25:27;;;;;;;37.70;15.33;;;4.30;99.90;;;;;;4161883;28;20461;-77
2022/12/20 06:27:29;;;;;;;34.20;14.47;;;4.30;99.90;;;;;;4160618;28;20538;-76
2022/12/20 06:29:30;;;;;;;35.20;14.83;;;4.30;99.90;;;;;;4155617;28;20467;-77
2022/12/20 06:31:32;;;;;;;38.90;15.37;;;4.30;99.90;;;;;;4175728;28;20486;-76
2022/12/20 06:33:34;;;;;;;38.03;15.17;;;4.30;99.90;;;;;;4171660;28;20453;-77
2022/12/20 06:35:38;;;;;;;32.63;13.70;;;4.30;99.90;;;;;;4157106;28;20467;-77
2022/12/20 06:37:40;;;;;;;30.10;13.57;;;4.30;99.90;;;;;;4160936;28;21085;-77
2022/12/20 06:39:42;;;;;;;34.37;14.00;;;4.40;99.90;;;;;;4175253;28;20499;-76
2022/12/20 06:41:44;;;;;;;36.60;13.47;;;4.30;99.90;;;;;;4175570;28;20869;-77
2022/12/20 06:43:46;;;;;;;32.10;14.63;;;4.30;99.90;;;;;;4156987;28;21029;-77
2022/12/20 06:45:47;;;;;;;30.57;14.20;;;4.40;99.90;;;;;;4170989;28;20500;-77
2022/12/20 06:47:49;;;;;;;34.77;14.17;;;4.40;99.90;;;;;;4172785;28;20988;-77
2022/12/20 06:49:51;;;;;;;37.27;14.50;;;4.40;99.90;;;;;;4172669;28;20466;-77
2022/12/20 06:51:55;;;;;;;34.13;14.17;;;4.40;99.90;;;;;;4173712;28;20784;-77
2022/12/20 06:53:56;;;;;;;30.73;13.80;;;4.40;99.90;;;;;;4154157;28;20466;-77
2022/12/20 06:55:58;;;;;;;34.50;14.33;;;4.40;99.90;;;;;;4156636;28;21005;-77
2022/12/20 06:58:00;;;;;;;32.27;13.67;;;4.50;99.90;;;;;;4165716;28;20504;-77
2022/12/20 07:00:03;;;;;;;35.30;14.20;;;4.40;99.90;;;;;;4174930;28;21035;-77
2022/12/20 07:02:05;;;;;;;35.67;14.67;;;4.50;99.90;;;;;;4171203;28;20461;-77
2022/12/20 07:04:07;;;;;;;30.33;14.23;;;4.40;99.90;;;;;;4178248;28;20472;-77
2022/12/20 07:06:09;;;;;;;32.63;13.70;;;4.50;99.90;;;;;;4174443;28;20477;-77
2022/12/20 07:08:13;;;;;;;31.97;14.20;;;4.50;99.90;;;;;;4171551;28;20481;-78
2022/12/20 07:10:15;;;;;;;36.70;14.70;;;4.50;99.90;;;;;;4151517;28;20554;-77
2022/12/20 07:12:17;;;;;;;31.33;13.23;;;4.50;99.90;;;;;;4155069;28;20485;-77
2022/12/20 07:14:19;;;;;;;33.77;14.30;;;4.50;99.90;;;;;;4161635;28;20458;-75
2022/12/20 07:16:21;;;;;;;29.60;13.63;;;4.50;99.90;;;;;;4156902;28;20464;-76
2022/12/20 07:18:23;;;;;;;30.83;13.43;;;4.50;99.90;;;;;;4155072;28;20494;-77
2022/12/20 07:20:25;;;;;;;29.50;13.80;;;4.60;99.90;;;;;;4176586;28;20480;-77
2022/12/20 07:22:27;;;;;;;29.97;12.63;;;4.60;99.90;;;;;;4158900;28;20463;-77
2022/12/20 07:24:30;;;;;;;29.30;12.93;;;4.60;99.90;;;;;;4174974;28;20468;-77
2022/12/20 07:26:32;;;;;;;26.43;12.53;;;4.60;99.90;;;;;;4178358;28;20535;-77
2022/12/20 07:28:34;;;;;;;25.70;12.20;;;4.60;99.90;;;;;;4136248;28;1226540;-77
2022/12/20 07:30:40;;;;;;;28.13;12.13;;;4.70;99.90;;;;;;4178253;28;20196;-77
2022/12/20 07:32:42;;;;;;;29.00;12.80;;;4.70;99.90;;;;;;4176658;28;20458;-76
2022/12/20 07:34:44;;;;;;;29.37;12.90;;;4.70;99.90;;;;;;4180808;28;20452;-77
2022/12/20 07:36:49;;;;;;;26.17;12.17;;;4.70;99.90;;;;;;4165889;28;21011;-75
2022/12/20 07:38:51;;;;;;;29.77;13.57;;;4.70;99.90;;;;;;4159005;28;20444;-77
2022/12/20 07:40:54;;;;;;;29.20;13.60;;;4.70;99.90;;;;;;4177474;28;20534;-77
2022/12/20 07:42:56;;;;;;;31.57;13.90;;;4.70;99.90;;;;;;4177339;28;20462;-77
2022/12/20 07:44:58;;;;;;;33.83;13.73;;;4.70;99.90;;;;;;4168455;28;20486;-77
2022/12/20 07:47:00;;;;;;;33.07;14.37;;;4.70;99.90;;;;;;4181870;28;20542;-77
2022/12/20 07:49:02;;;;;;;33.10;13.47;;;4.70;99.90;;;;;;4175041;28;20457;-77
2022/12/20 07:51:08;;;;;;;34.03;15.10;;;4.70;99.90;;;;;;4163267;28;20518;-77
2022/12/20 07:53:11;;;;;;;31.27;14.20;;;4.70;99.90;;;;;;4174048;28;20469;-77
2022/12/20 07:55:14;;;;;;;34.63;14.50;;;4.70;99.90;;;;;;4159411;28;20467;-75
2022/12/20 07:57:22;;;;;;;34.60;14.50;;;4.70;99.90;;;;;;4175503;28;20484;-77
2022/12/20 07:59:28;;;;;;;36.47;15.13;;;4.70;99.90;;;;;;4171820;28;20472;-77
2022/12/20 08:01:31;;;;;;;34.33;14.83;;;4.70;99.90;;;;;;4180549;28;20546;-77
2022/12/20 08:03:37;;;;;;;33.17;14.53;;;4.60;99.90;;;;;;4157671;28;20447;-79
2022/12/20 08:05:44;;;;;;;31.97;14.47;;;4.70;99.90;;;;;;4158207;28;20467;-78
2022/12/20 08:07:48;;;;;;;31.90;15.23;;;4.60;99.90;;;;;;4163241;28;21055;-78
2022/12/20 08:09:51;;;;;;;38.53;15.03;;;4.60;99.90;;;;;;4172533;28;20457;-78
2022/12/20 08:11:55;;;;;;;35.47;15.17;;;4.60;99.90;;;;;;4177128;28;20430;-78
2022/12/20 08:13:58;;;;;;;33.87;14.03;;;4.60;99.90;;;;;;4177514;28;20445;-78
2022/12/20 08:16:00;;;;;;;36.77;14.97;;;4.60;99.90;;;;;;4177493;28;20452;-78
2022/12/20 08:18:03;;;;;;;37.47;16.20;;;4.60;99.90;;;;;;4160692;28;20447;-78
2022/12/20 08:20:06;;;;;;;38.20;15.83;;;4.60;99.90;;;;;;4179202;28;20463;-78
2022/12/20 08:22:08;;;;;;;37.70;17.40;;;4.60;99.90;;;;;;4164822;28;20494;-78
2022/12/20 08:24:10;;;;;;;37.47;15.87;;;4.60;99.90;;;;;;4182328;28;20464;-78
2022/12/20 08:26:12;;;;;;;35.60;15.47;;;4.50;99.90;;;;;;4186865;28;20454;-78
2022/12/20 08:28:14;;;;;;;31.33;14.57;;;4.50;99.90;;;;;;4183474;28;20731;-78
2022/12/20 08:30:18;;;;;;;36.77;15.40;;;4.50;99.90;;;;;;4182177;28;20511;-78
2022/12/20 08:32:20;;;;;;;32.10;14.17;;;4.50;99.90;;;;;;4182229;28;20449;-78
2022/12/20 08:34:21;;;;;;;27.53;14.00;;;4.50;99.90;;;;;;4181620;28;20456;-78
2022/12/20 08:36:23;;;;;;;31.23;14.37;;;4.50;99.90;;;;;;4164602;28;20494;-77
2022/12/20 08:38:27;;;;;;;32.70;14.27;;;4.50;99.90;;;;;;4170193;28;20529;-78
2022/12/20 08:40:29;;;;;;;30.37;14.13;;;4.50;99.90;;;;;;4158899;28;21200;-78
2022/12/20 08:42:31;;;;;;;30.27;13.37;;;4.50;99.90;;;;;;4163488;28;20470;-78
2022/12/20 08:44:33;;;;;;;37.40;15.07;;;4.50;99.90;;;;;;4182066;28;20476;-78
2022/12/20 08:46:37;;;;;;;42.23;18.97;;;4.50;99.90;;;;;;4184621;28;20504;-78
2022/12/20 08:48:39;;;;;;;36.77;16.33;;;4.50;99.90;;;;;;4180269;28;20453;-78
2022/12/20 08:50:41;;;;;;;32.20;14.53;;;4.60;99.90;;;;;;4177769;28;20474;-78
2022/12/20 08:52:43;;;;;;;33.10;14.97;;;4.60;99.90;;;;;;4175909;28;20445;-78
2022/12/20 08:54:45;;;;;;;32.27;14.57;;;4.60;99.90;;;;;;4176900;28;20504;-77
2022/12/20 08:56:47;;;;;;;32.70;13.93;;;4.60;99.90;;;;;;4176900;28;21517;-78
2022/12/20 08:58:49;;;;;;;31.70;14.70;;;4.60;99.90;;;;;;4160438;28;20979;-77
2022/12/20 09:00:51;;;;;;;34.60;14.97;;;4.70;99.90;;;;;;4158872;28;20459;-77
2022/12/20 09:02:55;;;;;;;31.90;13.37;;;4.70;99.90;;;;;;4155933;28;20448;-77
2022/12/20 09:04:57;;;;;;;33.30;14.90;;;4.70;99.90;;;;;;4175798;28;20443;-77
2022/12/20 09:06:59;;;;;;;32.13;14.80;;;4.70;99.90;;;;;;4176578;28;20902;-78
2022/12/20 09:09:01;;;;;;;31.60;14.30;;;4.70;99.90;;;;;;4184965;28;20471;-77
2022/12/20 09:11:08;;;;;;;33.77;13.80;;;4.70;99.90;;;;;;4178314;28;20490;-77
2022/12/20 09:13:10;;;;;;;33.53;14.17;;;4.70;99.90;;;;;;4182360;28;20948;-77
2022/12/20 09:15:12;;;;;;;27.17;14.07;;;4.70;99.90;;;;;;4162138;28;20479;-77
2022/12/20 09:17:14;;;;;;;31.67;14.77;;;4.80;99.90;;;;;;4177740;28;20489;-77
2022/12/20 09:19:17;;;;;;;31.90;15.83;;;4.70;99.90;;;;;;4173933;28;20447;-77
2022/12/20 09:21:20;;;;;;;34.60;14.87;;;4.70;99.90;;;;;;4178905;28;20479;-77
2022/12/20 09:23:22;;;;;;;36.60;15.03;;;4.70;99.90;;;;;;4159245;28;20505;-77
2022/12/20 09:25:24;;;;;;;36.13;14.90;;;4.70;99.90;;;;;;4179286;28;20495;-76
2022/12/20 09:27:26;;;;;;;32.83;14.37;;;4.80;99.90;;;;;;4181624;28;20468;-77
2022/12/20 09:29:27;;;;;;;34.80;15.50;;;4.80;99.90;;;;;;4160402;28;20461;-77
2022/12/20 09:31:29;;;;;;;32.00;14.53;;;4.80;99.90;;;;;;4176983;28;20524;-77
2022/12/20 09:33:32;;;;;;;33.97;15.03;;;4.80;99.90;;;;;;4176462;28;20454;-77
2022/12/20 09:35:36;;;;;;;33.27;15.43;;;4.90;99.90;;;;;;4182060;28;20583;-77
2022/12/20 09:37:37;;;;;;;27.63;14.10;;;4.90;99.90;;;;;;4177178;28;20498;-77
2022/12/20 09:39:40;;;;;;;32.50;14.77;;;4.90;99.90;;;;;;4179020;28;20450;-77
2022/12/20 09:41:43;;;;;;;34.17;15.30;;;4.90;99.90;;;;;;4176887;28;20485;-77
2022/12/20 09:43:46;;;;;;;38.20;14.93;;;4.80;99.90;;;;;;4175247;28;20508;-77
2022/12/20 09:45:52;;;;;;;35.90;15.27;;;5.00;99.90;;;;;;4179658;28;20447;-77
2022/12/20 09:47:54;;;;;;;31.43;14.57;;;5.00;99.90;;;;;;4179570;28;20478;-77
2022/12/20 09:49:57;;;;;;;34.47;14.20;;;5.00;99.90;;;;;;4179418;28;20887;-77
2022/12/20 09:52:25;;;;;;;34.60;15.20;;;5.00;99.90;;;;;;4175800;28;20456;-77
2022/12/20 09:54:37;;;;;;;31.30;14.30;;;5.00;99.90;;;;;;4178364;28;20438;-77
2022/12/20 09:56:43;;;;;;;28.70;14.27;;;5.10;99.90;;;;;;4173904;28;21027;-77
2022/12/20 09:59:00;;;;;;;33.47;13.47;;;5.10;99.90;;;;;;4177312;28;20464;-77
2022/12/20 10:01:16;;;;;;;32.77;15.07;;;5.10;99.90;;;;;;4159469;28;20539;-77
2022/12/20 10:03:23;;;;;;;31.83;14.30;;;5.10;99.90;;;;;;4182450;28;20455;-77
2022/12/20 10:05:38;;;;;;;32.73;14.37;;;5.20;99.90;;;;;;4157839;28;20463;-77
2022/12/20 10:07:49;;;;;;;31.97;13.83;;;5.20;99.90;;;;;;4178527;28;20489;-77
2022/12/20 10:10:14;;;;;;;29.80;12.77;;;5.60;99.90;;;;;;4176841;28;20455;-78
2022/12/20 10:12:25;;;;;;;26.47;12.80;;;5.60;99.90;;;;;;4170533;28;20804;-77
2022/12/20 10:14:47;;;;;;;27.97;13.27;;;5.30;99.90;;;;;;4173698;28;20472;-77
2022/12/20 10:16:55;;;;;;;23.37;11.57;;;5.30;99.90;;;;;;4180439;28;20502;-77
2022/12/20 10:19:07;;;;;;;25.87;12.00;;;5.30;99.90;;;;;;4160361;28;20968;-76
2022/12/20 10:21:17;;;;;;;26.37;11.87;;;5.30;99.90;;;;;;4178411;28;20815;-77
2022/12/20 10:23:28;;;;;;;26.33;12.53;;;5.40;99.90;;;;;;4175534;28;20457;-77
2022/12/20 10:25:32;;;;;;;20.27;10.90;;;5.40;99.90;;;;;;4176305;28;20462;-77
2022/12/20 10:27:37;;;;;;;25.23;12.10;;;5.40;99.90;;;;;;4160731;28;20471;-77
2022/12/20 10:29:39;;;;;;;23.90;11.67;;;5.40;99.90;;;;;;4178353;28;20460;-78
2022/12/20 10:31:42;;;;;;;23.40;11.30;;;5.50;99.90;;;;;;4179785;28;20458;-77
2022/12/20 10:33:45;;;;;;;23.37;11.00;;;5.50;99.90;;;;;;4176096;28;20486;-77
2022/12/20 10:35:49;;;;;;;24.37;10.93;;;5.50;99.90;;;;;;4179379;28;20455;-77
2022/12/20 10:38:05;;;;;;;20.83;10.30;;;5.50;99.90;;;;;;4178631;28;21077;-77
2022/12/20 10:40:27;;;;;;;20.23;10.70;;;5.60;99.90;;;;;;4158193;28;20487;-77
2022/12/20 10:42:37;;;;;;;23.07;10.37;;;5.50;99.90;;;;;;4175080;28;20499;-78
2022/12/20 10:44:39;;;;;;;21.83;10.17;;;5.50;99.90;;;;;;4175741;28;20459;-78
2022/12/20 10:46:44;;;;;;;24.70;11.27;;;5.60;99.90;;;;;;4173118;28;20479;-78
2022/12/20 10:48:49;;;;;;;22.40;11.40;;;5.90;99.90;;;;;;4155677;28;20473;-78
2022/12/20 10:50:56;;;;;;;25.63;11.43;;;5.60;99.90;;;;;;4180042;28;20459;-77